Time;durP1;ratioP1;P1;durP2;ratioP2;P2;SDS_P1;SDS_P2;PMS_P1;PMS_P2;Temp;Humidity;BMP_temperature;BMP_pressure;BME280_temperature;BME280_humidity;BME280_pressure;Samples;Min_cycle;Max_cycle;Signal;HPM_P1;HPM_P2
2023/12/06 00:01:16;;;;;;;;;6.67;6.00;;;;;14.34;74.92;100465.25;146601;604;47012;-63
2023/12/06 00:04:10;;;;;;;;;3.00;3.00;;;;;14.33;75.51;100458.28;146607;582;47010;-64
2023/12/06 00:07:13;;;;;;;;;3.67;2.00;;;;;14.29;75.59;100448.56;146603;652;47012;-64
2023/12/06 00:10:16;;;;;;;;;1.67;1.67;;;;;14.26;74.96;100454.53;146607;609;47010;-65
2023/12/06 00:13:11;;;;;;;;;1.00;1.00;;;;;14.23;75.37;100448.34;146605;625;47014;-64
2023/12/06 00:16:14;;;;;;;;;4.67;0.00;;;;;14.18;75.56;100444.72;146609;615;46010;-63
2023/12/06 00:19:15;;;;;;;;;1.33;1.00;;;;;14.16;76.57;100442.06;146606;578;46012;-64
2023/12/06 00:22:20;;;;;;;;;0.00;0.00;;;;;14.16;76.33;100435.97;146605;569;46020;-65
2023/12/06 00:25:25;;;;;;;;;2.00;2.00;;;;;14.15;76.19;100442.91;146605;569;46016;-64
2023/12/06 00:28:17;;;;;;;;;4.33;3.33;;;;;14.12;76.65;100435.00;146609;579;46011;-64
2023/12/06 00:31:10;;;;;;;;;2.00;1.00;;;;;14.07;75.62;100437.44;146605;639;47012;-63
2023/12/06 00:34:15;;;;;;;;;1.00;0.67;;;;;9.57;74.05;99668.16;146607;599;47010;-65
2023/12/06 00:37:10;;;;;;;;;2.00;0.33;;;;;14.05;75.68;100440.84;146610;595;47012;-65
2023/12/06 00:40:03;;;;;;;;;1.00;0.00;;;;;14.00;76.27;100443.28;146610;573;47010;-64
2023/12/06 00:43:00;;;;;;;;;0.00;0.00;;;;;13.96;76.87;100431.00;146605;591;46014;-65
2023/12/06 00:46:04;;;;;;;;;0.00;0.00;;;;;13.92;77.22;100425.62;146606;664;47010;-65
2023/12/06 00:49:03;;;;;;;;;2.33;2.00;;;;;13.79;76.81;100412.19;146603;565;47014;-65
2023/12/06 00:52:05;;;;;;;;;;;;;;;;;;;;;
2023/12/06 00:55:14;;;;;;;;;;;;;;;;;;;;;
2023/12/06 00:58:19;;;;;;;;;0.67;0.00;;;;;13.48;81.69;100412.00;146606;638;46021;-64
2023/12/06 01:01:19;;;;;;;;;0.00;0.00;;;;;13.38;81.39;100409.06;146606;569;47014;-64
2023/12/06 01:04:17;;;;;;;;;0.67;0.67;;;;;13.32;80.75;100406.25;146605;587;47020;-63
2023/12/06 01:07:17;;;;;;;;;0.67;0.33;;;;;13.33;79.82;100407.13;146601;565;46016;-63
2023/12/06 01:10:23;;;;;;;;;0.00;0.00;;;;;13.39;79.71;100412.53;146603;581;47020;-65
2023/12/06 01:13:16;;;;;;;;;0.00;0.00;;;;;13.38;81.04;100396.03;146607;587;46017;-65
2023/12/06 01:16:20;;;;;;;;;0.00;0.00;;;;;13.38;80.16;100395.16;146607;599;47020;-67
2023/12/06 01:19:16;;;;;;;;;1.00;1.00;;;;;13.35;81.91;100379.44;146601;564;47017;-65
2023/12/06 01:22:08;;;;;;;;;2.00;2.00;;;;;13.30;82.56;100388.78;146602;592;47010;-66
2023/12/06 01:25:25;;;;;;;;;2.67;1.00;;;;;9.97;79.95;99812.94;146604;662;46033;-66
2023/12/06 01:28:24;;;;;;;;;1.00;0.00;;;;;13.31;81.16;100386.25;146605;567;46020;-65
2023/12/06 01:31:27;;;;;;;;;1.00;1.00;;;;;13.29;83.42;100380.09;146604;579;46016;-65
2023/12/06 01:34:28;;;;;;;;;1.67;1.67;;;;;13.23;84.94;100368.56;146606;587;46027;-66
2023/12/06 01:37:29;;;;;;;;;0.33;0.00;;;;;13.19;84.01;100367.56;146606;612;46917;-67
2023/12/06 01:40:27;;;;;;;;;4.00;2.00;;;;;13.16;84.95;100362.25;146606;639;47020;-64
2023/12/06 01:43:32;;;;;;;;;5.00;1.00;;;;;13.14;85.20;100364.78;146603;590;47014;-65
2023/12/06 01:46:28;;;;;;;;;1.33;1.33;;;;;13.16;84.91;100362.25;146606;616;46020;-63
2023/12/06 01:49:32;;;;;;;;;0.33;0.00;;;;;13.19;84.15;100351.94;146601;564;47016;-65
2023/12/06 01:52:44;;;;;;;;;;;;;;;;;;;;;
2023/12/06 01:55:39;;;;;;;;;1.00;0.33;;;;;13.16;86.98;100359.66;146605;605;46032;-64
2023/12/06 01:58:42;;;;;;;;;1.00;1.00;;;;;13.07;87.01;100348.91;146607;588;46020;-65
2023/12/06 02:01:39;;;;;;;;;2.00;1.33;;;;;13.02;87.92;100348.78;146598;620;49917;-65
2023/12/06 02:04:32;;;;;;;;;1.67;1.67;;;;;12.99;87.97;100334.72;146607;683;47010;-65
2023/12/06 02:07:29;;;;;;;;;4.67;2.33;;;;;13.01;87.14;100333.09;146606;680;46012;-64
2023/12/06 02:10:32;;;;;;;;;2.00;2.00;;;;;13.04;87.18;100327.97;146603;579;47020;-65
2023/12/06 02:13:24;;;;;;;;;3.00;3.00;;;;;13.07;85.73;100326.38;146606;640;47001;-64
2023/12/06 02:16:18;;;;;;;;;3.00;1.67;;;;;13.13;85.15;100316.16;146605;618;47020;-63
2023/12/06 02:19:19;;;;;;;;;0.33;0.33;;;;;13.18;84.71;100313.75;146604;571;46017;-64
2023/12/06 02:22:17;;;;;;;;;2.33;1.00;;;;;13.24;84.39;100306.13;146608;647;46010;-64
2023/12/06 02:25:14;;;;;;;;;2.00;2.00;;;;;13.32;84.43;100315.09;146605;640;46016;-64
2023/12/06 02:28:06;;;;;;;;;1.33;1.00;;;;;13.38;85.26;100315.31;146608;630;46020;-65
2023/12/06 02:31:05;;;;;;;;;5.00;3.00;;;;;13.39;85.05;100318.78;146608;640;46012;-64
2023/12/06 02:34:02;;;;;;;;;5.50;4.75;;;;;13.41;84.97;100319.75;146606;594;47010;-65
2023/12/06 02:37:09;;;;;;;;;6.00;5.33;;;;;13.42;83.78;100303.28;146609;577;46012;-65
2023/12/06 02:40:04;;;;;;;;;4.67;3.67;;;;;13.45;84.02;100307.69;146608;599;46021;-65
2023/12/06 02:43:34;;;;;;;;;3.67;3.67;;;;;13.44;83.41;100296.41;146604;599;47016;-68
2023/12/06 02:46:41;;;;;;;;;4.00;3.33;;;;;13.45;83.65;100298.16;146608;606;47011;-66
2023/12/06 02:49:37;;;;;;;;;4.00;4.00;;;;;13.45;83.47;100287.75;146597;631;49917;-67
2023/12/06 02:52:32;;;;;;;;;5.75;4.75;;;;;13.43;83.41;100284.22;146605;679;46020;-66
2023/12/06 02:55:25;;;;;;;;;5.33;4.67;;;;;13.40;83.44;100292.81;146606;694;47016;-66
2023/12/06 02:58:16;;;;;;;;;4.50;3.25;;;;;13.36;83.85;100285.75;146607;581;47020;-66
2023/12/06 03:01:22;;;;;;;;;4.00;3.00;;;;;13.33;83.18;100272.62;146607;629;46016;-66
2023/12/06 03:04:16;;;;;;;;;4.00;3.00;;;;;13.33;83.31;100266.50;146610;573;47010;-67
2023/12/06 03:07:21;;;;;;;;;;;;;;;;;;;;;
2023/12/06 03:10:16;;;;;;;;;8.00;5.50;;;;;13.30;83.68;100276.81;146605;571;47014;-66
2023/12/06 03:13:12;;;;;;;;;6.67;6.67;;;;;13.31;84.50;100263.00;146603;590;47012;-66
2023/12/06 03:16:09;;;;;;;;;8.33;6.33;;;;;13.32;84.04;100267.34;146610;606;46011;-66
2023/12/06 03:19:08;;;;;;;;;7.67;7.67;;;;;13.34;83.78;100256.16;146605;611;46016;-68
2023/12/06 03:22:03;;;;;;;;;6.33;5.00;;;;;13.35;84.05;100265.72;146606;661;46020;-68
2023/12/06 03:24:59;;;;;;;;;11.25;11.00;;;;;13.34;84.62;100257.87;146599;564;47016;-68
2023/12/06 03:27:57;;;;;;;;;15.25;12.75;;;;;13.27;84.21;100261.09;146605;610;46010;-67
2023/12/06 03:31:00;;;;;;;;;12.75;11.00;;;;;13.24;84.18;100260.97;146607;564;46013;-67
2023/12/06 03:33:53;;;;;;;;;13.25;12.25;;;;;13.23;84.82;100261.81;146604;718;47020;-69
2023/12/06 03:36:49;;;;;;;;;8.00;7.67;;;;;13.22;84.38;100250.50;146604;603;46016;-67
2023/12/06 03:39:41;;;;;;;;;6.75;6.00;;;;;13.23;84.96;100254.88;146606;704;47010;-68
2023/12/06 03:42:35;;;;;;;;;7.75;5.75;;;;;13.22;84.55;100249.63;146604;629;46027;-68
2023/12/06 03:45:36;;;;;;;;;6.00;6.00;;;;;13.23;84.69;100259.19;146607;565;47019;-69
2023/12/06 03:48:32;;;;;;;;;7.33;7.33;;;;;13.23;84.68;100252.28;146605;631;46014;-66
2023/12/06 03:51:32;;;;;;;;;8.50;6.75;;;;;13.26;84.58;100249.81;146604;651;46020;-68
2023/12/06 03:54:34;;;;;;;;;4.00;4.00;;;;;13.30;84.98;100250.78;146606;570;46016;-66
2023/12/06 03:57:26;;;;;;;;;4.25;4.00;;;;;13.32;84.67;100247.41;146609;670;47010;-66
2023/12/06 04:00:26;;;;;;;;;4.00;4.00;;;;;13.32;84.56;100257.81;146604;633;47012;-66
2023/12/06 04:03:19;;;;;;;;;5.75;5.00;;;;;13.32;84.51;100254.34;146605;628;46020;-68
2023/12/06 04:06:12;;;;;;;;;5.50;5.00;;;;;13.32;84.65;100256.94;146604;574;47012;-67
2023/12/06 04:09:08;;;;;;;;;7.00;7.00;;;;;13.34;84.85;100261.37;146608;665;46021;-67
2023/12/06 04:12:06;;;;;;;;;10.25;8.50;;;;;13.36;84.64;100257.09;146606;598;46016;-66
2023/12/06 04:15:04;;;;;;;;;7.00;7.00;;;;;13.36;84.28;100249.28;146605;633;47044;-66
2023/12/06 04:17:56;;;;;;;;;10.00;8.00;;;;;13.35;84.62;100246.63;146601;685;47012;-64
2023/12/06 04:21:03;;;;;;;;;5.25;5.25;;;;;13.35;84.35;100247.50;146604;569;46020;-65
2023/12/06 04:24:04;;;;;;;;;8.00;6.00;;;;;13.33;84.23;100246.59;146603;717;47016;-66
2023/12/06 04:27:06;;;;;;;;;7.00;7.00;;;;;13.35;83.78;100252.72;146604;599;46020;-67
2023/12/06 04:30:17;;;;;;;;;6.75;6.75;;;;;13.32;84.92;100250.00;146603;723;46017;-67
2023/12/06 04:33:12;;;;;;;;;5.00;4.33;;;;;13.29;85.08;100244.69;146609;613;46010;-65
2023/12/06 04:36:08;;;;;;;;;5.50;5.25;;;;;13.27;84.34;100250.69;146602;565;47016;-64
2023/12/06 04:39:11;;;;;;;;;7.50;6.25;;;;;13.24;83.57;100253.16;146608;652;46021;-64
2023/12/06 04:42:06;;;;;;;;;6.25;5.25;;;;;13.23;84.78;100254.88;146603;602;47016;-65
2023/12/06 04:45:02;;;;;;;;;5.00;5.00;;;;;13.26;84.56;100255.00;146608;629;46021;-63
2023/12/06 04:47:55;;;;;;;;;6.00;3.75;;;;;13.23;84.73;100251.41;146604;575;46917;-66
2023/12/06 04:50:47;;;;;;;;;5.00;4.00;;;;;13.20;84.68;100244.37;146605;578;48010;-64
2023/12/06 04:53:39;;;;;;;;;8.00;5.50;;;;;13.21;85.12;100245.25;146604;571;47035;-64
2023/12/06 04:56:49;;;;;;;;;6.50;5.25;;;;;13.20;85.12;100243.47;146608;596;46020;-65
2023/12/06 05:00:02;;;;;;;;;6.75;5.50;;;;;9.69;83.47;99643.59;146605;652;46918;-67
2023/12/06 05:03:04;;;;;;;;;4.50;4.50;;;;;13.16;84.54;100242.50;146605;564;48010;-65
2023/12/06 05:05:58;;;;;;;;;6.00;4.25;;;;;13.16;84.63;100247.72;146605;612;46016;-66
2023/12/06 05:09:01;;;;;;;;;7.00;6.75;;;;;13.18;84.87;100243.44;146601;624;46917;-65
2023/12/06 05:11:56;;;;;;;;;6.25;5.50;;;;;13.20;85.77;100240.87;146603;573;47016;-66
2023/12/06 05:14:51;;;;;;;;;7.00;5.25;;;;;13.23;85.87;100236.66;146608;575;46021;-66
2023/12/06 05:17:44;;;;;;;;;8.75;6.75;;;;;13.26;85.46;100239.38;146605;613;46917;-67
2023/12/06 05:20:37;;;;;;;;;9.25;9.00;;;;;13.29;85.49;100236.87;146605;579;46020;-67
2023/12/06 05:23:32;;;;;;;;;7.75;7.00;;;;;13.28;85.34;100229.03;146604;597;46016;-66
2023/12/06 05:26:32;;;;;;;;;7.50;6.50;;;;;13.29;85.29;100236.87;146607;606;46010;-66
2023/12/06 05:29:27;;;;;;;;;8.75;8.25;;;;;13.29;85.41;100233.41;146605;653;46014;-67
2023/12/06 05:32:37;;;;;;;;;7.00;7.00;;;;;13.30;84.58;100230.87;146604;717;47020;-66
2023/12/06 05:35:35;;;;;;;;;9.00;6.25;;;;;13.30;84.87;100236.06;146603;702;47012;-66
2023/12/06 05:38:31;;;;;;;;;8.50;6.00;;;;;13.30;85.22;100236.06;146604;611;48010;-66
2023/12/06 05:41:26;;;;;;;;;5.00;5.00;;;;;13.31;85.16;100236.94;146604;594;47014;-66
2023/12/06 05:44:27;;;;;;;;;7.75;7.00;;;;;13.31;85.49;100237.84;146610;713;46010;-68
2023/12/06 05:47:25;;;;;;;;;6.25;5.25;;;;;11.65;85.15;99953.13;146604;674;46012;-68
2023/12/06 05:50:21;;;;;;;;;8.00;7.00;;;;;13.29;85.31;100231.69;146604;675;47021;-67
2023/12/06 05:53:23;;;;;;;;;6.33;6.33;;;;;13.30;85.14;100240.37;146604;618;47012;-66
2023/12/06 05:56:21;;;;;;;;;10.50;8.00;;;;;13.31;85.52;100240.44;146607;709;47020;-67
2023/12/06 05:59:14;;;;;;;;;7.00;7.00;;;;;13.29;85.89;100243.81;146603;570;46016;-67
2023/12/06 06:02:11;;;;;;;;;6.67;6.33;;;;;13.26;86.08;100248.94;146609;688;45020;-68
2023/12/06 06:05:08;;;;;;;;;6.00;5.00;;;;;13.22;86.63;100245.31;146604;586;46016;-68
2023/12/06 06:08:01;;;;;;;;;5.00;5.00;;;;;13.20;86.79;100246.09;146609;572;46010;-68
2023/12/06 06:10:57;;;;;;;;;7.00;6.00;;;;;13.17;87.14;100255.56;146603;667;47014;-69
2023/12/06 06:14:00;;;;;;;;;11.25;8.50;;;;;13.16;86.56;100252.91;146604;571;48011;-66
2023/12/06 06:16:58;;;;;;;;;10.00;8.25;;;;;13.16;86.93;100259.00;146606;569;47016;-69
2023/12/06 06:19:54;;;;;;;;;7.50;6.00;;;;;13.18;86.78;100261.66;146608;721;46010;-69
2023/12/06 06:22:49;;;;;;;;;5.00;4.67;;;;;13.16;87.16;100266.81;146606;587;46032;-78
2023/12/06 06:25:47;;;;;;;;;6.00;5.67;;;;;13.18;87.65;100266.88;146605;563;47014;-69
2023/12/06 06:28:48;;;;;;;;;8.50;7.75;;;;;13.15;89.14;100264.19;146605;572;47012;-68
2023/12/06 06:31:45;;;;;;;;;8.00;7.00;;;;;13.13;88.92;100264.09;146606;593;48014;-69
2023/12/06 06:34:37;;;;;;;;;12.25;11.75;;;;;13.12;88.45;100262.34;146605;617;46916;-67
2023/12/06 06:37:35;;;;;;;;;12.25;11.25;;;;;13.14;89.19;100259.78;146607;691;46020;-69
2023/12/06 06:40:48;;;;;;;;;15.50;11.75;;;;;13.16;88.14;100260.72;146603;581;47012;-69
2023/12/06 06:43:43;;;;;;;;;15.00;13.75;;;;;13.20;89.01;100266.91;146605;705;46021;-68
2023/12/06 06:46:41;;;;;;;;;9.75;9.75;;;;;13.22;89.26;100263.53;146602;696;46016;-67
2023/12/06 06:49:45;;;;;;;;;6.67;5.00;;;;;13.16;89.67;100252.91;146607;570;47022;-69
2023/12/06 06:53:02;;;;;;;;;5.33;5.33;;;;;9.86;87.23;99683.06;146609;590;46012;-68
2023/12/06 06:55:58;;;;;;;;;6.75;4.00;;;;;13.17;90.74;100268.56;146608;570;46010;-69
2023/12/06 06:59:03;;;;;;;;;;;;;;;;;;;;;
2023/12/06 07:01:56;;;;;;;;;6.00;6.00;;;;;13.13;90.35;100273.63;146607;563;47010;-68
2023/12/06 07:04:51;;;;;;;;;7.00;6.75;;;;;13.15;90.39;100282.41;146604;633;46025;-67
2023/12/06 07:07:49;;;;;;;;;8.75;8.50;;;;;13.16;90.95;100276.34;146608;581;46020;-70
2023/12/06 07:10:49;;;;;;;;;12.75;11.75;;;;;13.17;92.68;100281.59;146603;565;46915;-68
2023/12/06 07:13:41;;;;;;;;;10.25;9.75;;;;;13.19;92.90;100289.47;146606;602;47011;-65
2023/12/06 07:16:36;;;;;;;;;8.00;8.00;;;;;13.22;92.46;100294.78;146599;569;47936;-68
2023/12/06 07:19:30;;;;;;;;;11.00;9.00;;;;;13.30;91.66;100290.75;146608;584;46021;-68
2023/12/06 07:22:22;;;;;;;;;29.00;24.50;;;;;13.43;92.14;100283.31;146601;573;46035;-68
2023/12/06 07:25:21;;;;;;;;;35.25;27.75;;;;;13.58;92.88;100291.63;146603;606;46010;-68
2023/12/06 07:28:23;;;;;;;;;17.00;13.75;;;;;13.74;92.46;100299.13;146605;597;46013;-69
2023/12/06 07:31:24;;;;;;;;;12.75;10.75;;;;;13.86;92.58;100303.81;146608;678;47010;-69
2023/12/06 07:34:22;;;;;;;;;6.67;6.33;;;;;13.95;92.42;100301.47;146601;590;46016;-67
2023/12/06 07:37:17;;;;;;;;;7.00;6.00;;;;;14.04;92.67;100293.06;146606;685;47010;-69
2023/12/06 07:40:14;;;;;;;;;9.00;8.00;;;;;14.21;91.61;100296.19;146606;618;46016;-67
2023/12/06 07:43:06;;;;;;;;;8.00;5.25;;;;;14.40;89.79;100295.88;146600;572;48920;-68
2023/12/06 07:46:08;;;;;;;;;7.00;6.00;;;;;14.47;87.87;100289.13;146604;642;47012;-66
2023/12/06 07:49:13;;;;;;;;;;;;;;;;;;;;;
2023/12/06 07:52:08;;;;;;;;;4.50;4.00;;;;;14.53;86.93;100286.72;146603;659;46025;-67
2023/12/06 07:55:09;;;;;;;;;7.00;6.00;;;;;14.51;86.71;100280.56;146607;579;47010;-68
2023/12/06 07:58:16;;;;;;;;;7.50;5.75;;;;;14.51;87.87;100285.78;146605;584;47012;-67
2023/12/06 08:01:10;;;;;;;;;8.00;7.00;;;;;14.50;89.17;100294.41;146607;570;46020;-68
2023/12/06 08:04:05;;;;;;;;;11.00;10.00;;;;;14.53;89.20;100287.59;146605;617;47915;-68
2023/12/06 08:06:57;;;;;;;;;9.00;7.67;;;;;14.61;90.09;100295.66;146609;571;46010;-68
2023/12/06 08:09:52;;;;;;;;;9.00;9.00;;;;;14.77;90.06;100296.97;146603;621;47012;-66
2023/12/06 08:12:49;;;;;;;;;8.50;6.25;;;;;15.00;88.30;100297.56;146606;656;47010;-65
2023/12/06 08:15:47;;;;;;;;;5.75;5.00;;;;;15.15;87.51;100289.25;146606;569;46016;-67
2023/12/06 08:18:46;;;;;;;;;5.00;4.25;;;;;15.09;85.52;100300.41;146607;592;46010;-68
2023/12/06 08:21:46;;;;;;;;;6.00;5.50;;;;;14.95;86.60;100305.28;146607;656;46033;-67
2023/12/06 08:24:43;;;;;;;;;8.50;8.50;;;;;14.90;86.85;100308.63;146607;719;46020;-67
2023/12/06 08:27:50;;;;;;;;;6.00;6.00;;;;;14.99;88.16;100306.25;146604;691;46016;-67
2023/12/06 08:30:45;;;;;;;;;9.50;8.00;;;;;15.22;86.87;100320.78;146607;569;46010;-66
2023/12/06 08:33:43;;;;;;;;;12.00;9.75;;;;;15.46;85.57;100327.50;146604;577;47012;-67
2023/12/06 08:36:37;;;;;;;;;8.00;7.00;;;;;15.60;84.22;100331.31;146628;569;46010;-66
2023/12/06 08:39:34;;;;;;;;;10.50;8.25;;;;;15.69;83.01;100330.69;146621;661;46017;-65
2023/12/06 08:42:26;;;;;;;;;21.25;14.75;;;;;15.66;81.39;100335.81;146627;611;45920;-66
2023/12/06 08:45:30;;;;;;;;;9.25;8.50;;;;;15.69;82.22;100335.91;146625;679;45915;-66
2023/12/06 08:48:32;;;;;;;;;11.67;10.33;;;;;15.72;81.48;100348.19;146629;633;46010;-66
2023/12/06 08:51:28;;;;;;;;;11.00;10.50;;;;;15.80;81.33;100347.53;146622;569;45028;-65
2023/12/06 08:54:20;;;;;;;;;11.75;10.00;;;;;15.88;80.57;100343.34;146629;604;46010;-66
2023/12/06 08:57:25;;;;;;;;;9.50;8.50;;;;;16.00;79.83;100350.59;146627;639;46013;-65
2023/12/06 09:00:18;;;;;;;;;8.25;7.00;;;;;16.02;79.42;100348.91;146629;624;46010;-66
2023/12/06 09:03:22;;;;;;;;;8.25;7.50;;;;;16.03;78.99;100342.81;146624;697;46014;-65
2023/12/06 09:06:19;;;;;;;;;8.25;8.25;;;;;16.25;79.89;100331.09;146627;678;46010;-66
2023/12/06 09:09:17;;;;;;;;;10.00;10.00;;;;;16.52;78.23;100329.94;146624;651;46013;-66
2023/12/06 09:12:12;;;;;;;;;12.00;11.00;;;;;16.22;76.48;100238.59;146626;595;45031;-66
2023/12/06 09:15:11;;;;;;;;;12.00;8.75;;;;;16.99;76.31;100335.28;146625;586;45915;-65
2023/12/06 09:18:07;;;;;;;;;10.25;9.00;;;;;17.21;75.18;100332.19;146627;569;45919;-65
2023/12/06 09:21:04;;;;;;;;;10.75;9.00;;;;;17.44;73.73;100326.47;146628;565;46010;-66
2023/12/06 09:24:04;;;;;;;;;7.00;6.00;;;;;17.65;72.17;100320.69;146629;610;45020;-65
2023/12/06 09:26:57;;;;;;;;;9.00;9.00;;;;;17.82;71.82;100321.91;146625;622;46017;-65
2023/12/06 09:29:49;;;;;;;;;8.33;7.00;;;;;17.97;70.68;100334.34;146629;666;46010;-66
2023/12/06 09:32:52;;;;;;;;;3.67;3.67;;;;;18.12;70.68;100326.69;146627;631;45915;-66
2023/12/06 09:35:51;;;;;;;;;5.33;5.33;;;;;18.25;70.07;100327.75;146608;569;46020;-67
2023/12/06 09:38:43;;;;;;;;;10.00;8.00;;;;;18.29;68.48;100326.94;146607;616;46012;-66
2023/12/06 09:41:40;;;;;;;;;8.33;6.00;;;;;18.21;67.40;100329.44;146610;608;46010;-68
2023/12/06 09:44:33;;;;;;;;;7.33;7.00;;;;;17.99;66.90;100333.50;146605;618;46915;-67
2023/12/06 09:47:33;;;;;;;;;7.00;5.67;;;;;17.73;68.09;100327.84;146608;576;46021;-66
2023/12/06 09:50:34;;;;;;;;;3.00;3.00;;;;;17.52;68.54;100323.12;146605;641;46014;-67
2023/12/06 09:53:32;;;;;;;;;4.33;4.33;;;;;17.31;69.57;100322.75;146609;598;47010;-67
2023/12/06 09:56:33;;;;;;;;;4.50;3.50;;;;;17.21;70.45;100321.72;146604;594;46016;-67
2023/12/06 09:59:37;;;;;;;;;7.00;5.33;;;;;17.12;71.18;100320.66;146609;628;46010;-66
2023/12/06 10:02:40;;;;;;;;;;;;;;;;;;;;;
2023/12/06 10:05:38;;;;;;;;;15.25;13.50;;;;;16.98;70.48;100321.31;146605;605;46010;-66
2023/12/06 10:08:48;;;;;;;;;9.50;9.00;;;;;16.96;70.96;100309.91;146602;643;46017;-66
2023/12/06 10:11:49;;;;;;;;;13.75;12.75;;;;;16.87;70.20;100314.09;146609;648;46010;-66
2023/12/06 10:14:49;;;;;;;;;20.75;16.75;;;;;16.71;71.12;100305.03;146604;612;47012;-67
2023/12/06 10:17:52;;;;;;;;;5.33;5.33;;;;;16.62;72.72;100305.72;146607;600;46010;-65
2023/12/06 10:20:58;;;;;;;;;;;;;;;;;;;;;
2023/12/06 10:24:23;;;;;;;;;7.00;6.25;;;;;13.00;72.28;99718.03;146606;646;46020;-67
2023/12/06 10:27:21;;;;;;;;;13.75;12.50;;;;;16.22;73.03;100281.34;146600;638;47016;-67
2023/12/06 10:30:41;;;;;;;;;15.75;13.00;;;;;16.28;74.10;100271.00;146607;593;46030;-67
2023/12/06 10:33:37;;;;;;;;;10.00;9.33;;;;;16.52;73.56;100281.09;146606;569;46012;-66
2023/12/06 10:36:31;;;;;;;;;3.25;3.00;;;;;16.84;72.84;100270.41;146632;599;45010;-66
2023/12/06 10:39:29;;;;;;;;;5.00;5.00;;;;;17.23;72.53;100258.88;146627;591;45017;-67
2023/12/06 10:42:37;;;;;;;;;7.00;6.67;;;;;17.60;70.73;100262.06;146630;598;45021;-66
2023/12/06 10:45:59;;;;;;;;;8.67;6.00;;;;;16.62;69.48;100049.19;146626;603;46012;-68
2023/12/06 10:48:53;;;;;;;;;5.33;3.67;;;;;17.95;67.97;100262.62;146625;634;46010;-66
2023/12/06 10:51:50;;;;;;;;;2.00;2.00;;;;;18.06;67.91;100265.38;146624;630;46021;-67
2023/12/06 10:54:49;;;;;;;;;4.00;4.00;;;;;18.14;67.36;100267.25;146628;643;47010;-66
2023/12/06 10:57:41;;;;;;;;;5.00;5.00;;;;;18.19;67.24;100251.56;146628;605;46915;-67
2023/12/06 11:00:35;;;;;;;;;6.00;5.00;;;;;18.26;66.85;100250.78;146629;566;46010;-67
2023/12/06 11:03:40;;;;;;;;;10.33;7.00;;;;;18.22;66.35;100247.25;146628;591;45028;-67
2023/12/06 11:07:04;;;;;;;;;10.75;10.75;;;;;18.14;67.32;100242.75;146626;623;46010;-68
2023/12/06 11:10:21;;;;;;;;;12.50;10.50;;;;;18.21;67.83;100239.34;146624;583;46012;-67
2023/12/06 11:14:06;;;;;;;;;8.00;7.00;;;;;18.37;67.52;100238.66;146630;628;45020;-66
2023/12/06 11:17:44;;;;;;;;;8.67;6.33;;;;;15.54;66.67;99711.87;146628;570;45017;-67
2023/12/06 11:20:51;;;;;;;;;;;;;;;;;;;;;
2023/12/06 11:23:47;;;;;;;;;5.00;5.00;;;;;18.75;64.25;100229.47;146623;593;46013;-67
2023/12/06 11:26:44;;;;;;;;;10.33;8.67;;;;;18.72;63.91;100230.28;146630;581;46010;-68
2023/12/06 11:29:36;;;;;;;;;5.33;5.00;;;;;18.58;64.25;100222.28;146618;579;47915;-67
2023/12/06 11:32:54;;;;;;;;;6.67;6.00;;;;;18.46;64.67;100217.78;146624;620;45024;-67
2023/12/06 11:36:01;;;;;;;;;8.00;7.00;;;;;18.22;64.93;100221.00;146609;572;46012;-67
2023/12/06 11:38:54;;;;;;;;;10.00;8.00;;;;;18.09;65.67;100220.81;146617;681;46011;-68
2023/12/06 11:42:00;;;;;;;;;9.67;8.67;;;;;18.14;66.21;100212.16;146605;570;46016;-67
2023/12/06 11:45:01;;;;;;;;;8.67;7.00;;;;;18.36;65.95;100220.28;146604;577;47010;-68
2023/12/06 11:47:59;;;;;;;;;9.00;7.00;;;;;18.63;65.42;100219.72;146604;626;46016;-67
2023/12/06 11:50:52;;;;;;;;;9.00;7.00;;;;;18.87;64.26;100212.09;146606;591;46020;-69
2023/12/06 11:53:48;;;;;;;;;14.00;13.00;;;;;19.01;62.97;100213.97;146607;593;46010;-68
2023/12/06 11:56:40;;;;;;;;;12.00;9.25;;;;;19.09;63.66;100220.16;146605;604;47020;-67
2023/12/06 11:59:41;;;;;;;;;6.33;6.00;;;;;19.11;61.83;100215.81;146605;602;47012;-68
2023/12/06 12:02:42;;;;;;;;;13.50;12.50;;;;;19.23;63.11;100218.53;146607;625;47010;-68
2023/12/06 12:05:35;;;;;;;;;18.00;16.25;;;;;19.34;64.69;100215.97;146603;596;47016;-69
2023/12/06 12:08:31;;;;;;;;;12.00;11.50;;;;;19.42;61.50;100216.94;146607;611;46021;-68
2023/12/06 12:11:41;;;;;;;;;;;;;;;;;;;;;
2023/12/06 12:14:42;;;;;;;;;3.67;3.00;;;;;19.34;62.71;100206.34;146608;581;47010;-69
2023/12/06 12:17:42;;;;;;;;;4.33;4.33;;;;;19.56;62.53;100210.03;146608;580;46026;-69
2023/12/06 12:20:48;;;;;;;;;8.00;7.00;;;;;19.83;59.92;100221.59;146605;683;46020;-67
2023/12/06 12:23:47;;;;;;;;;5.00;5.00;;;;;20.03;59.97;100232.22;146606;603;46916;-67
2023/12/06 12:26:48;;;;;;;;;6.00;6.00;;;;;19.74;59.55;100237.31;146606;587;46020;-69
2023/12/06 12:29:40;;;;;;;;;7.50;7.50;;;;;19.38;60.46;100241.44;146605;565;46017;-69
2023/12/06 12:32:43;;;;;;;;;7.33;5.00;;;;;18.86;60.95;100223.47;146609;676;46020;-68
2023/12/06 12:35:42;;;;;;;;;7.00;6.00;;;;;18.52;62.58;100239.72;146602;626;47016;-69
2023/12/06 12:38:41;;;;;;;;;7.00;6.67;;;;;18.14;62.97;100243.63;146608;630;46011;-69
2023/12/06 12:41:34;;;;;;;;;11.00;8.00;;;;;17.78;64.48;100265.88;146604;578;47014;-68
2023/12/06 12:44:31;;;;;;;;;8.00;6.67;;;;;17.49;65.51;100268.03;146610;599;46020;-70
2023/12/06 12:47:38;;;;;;;;;7.00;6.00;;;;;17.21;66.69;100268.44;146602;620;47016;-69
2023/12/06 12:50:37;;;;;;;;;7.00;7.00;;;;;16.94;68.29;100271.44;146603;674;47920;-68
2023/12/06 12:53:31;;;;;;;;;7.00;6.67;;;;;16.74;68.78;100268.44;146607;658;46915;-69
2023/12/06 12:56:30;;;;;;;;;7.67;7.00;;;;;16.58;70.19;100267.25;146603;597;47020;-68
2023/12/06 12:59:37;;;;;;;;;5.00;5.00;;;;;16.45;70.65;100268.75;146603;604;46017;-69
2023/12/06 13:02:35;;;;;;;;;9.00;8.00;;;;;16.37;71.15;100268.59;146608;569;46020;-67
2023/12/06 13:05:30;;;;;;;;;8.00;7.25;;;;;16.33;71.31;100268.50;146604;585;46915;-69
2023/12/06 13:08:40;;;;;;;;;;;;;;;;;;;;;
2023/12/06 13:11:33;;;;;;;;;7.33;5.00;;;;;16.28;71.07;100246.59;146604;590;46016;-68
2023/12/06 13:14:28;;;;;;;;;1.00;1.00;;;;;16.27;70.88;100247.44;146607;645;46020;-68
2023/12/06 13:17:27;;;;;;;;;5.33;5.33;;;;;16.51;71.95;100245.31;146607;567;46012;-69
2023/12/06 13:20:22;;;;;;;;;7.00;7.00;;;;;17.05;68.42;100241.09;146609;588;46010;-69
2023/12/06 13:23:20;;;;;;;;;8.75;8.75;;;;;17.32;68.22;100238.06;146604;591;46016;-67
2023/12/06 13:26:12;;;;;;;;;8.00;8.00;;;;;17.29;68.80;100240.63;146606;578;47010;-68
2023/12/06 13:29:10;;;;;;;;;11.00;9.00;;;;;17.40;66.81;100241.66;146605;570;46016;-70
2023/12/06 13:32:03;;;;;;;;;7.00;6.33;;;;;17.70;67.03;100249.12;146609;617;46010;-69
2023/12/06 13:35:04;;;;;;;;;8.33;7.00;;;;;17.96;66.57;100244.28;146606;564;46015;-68
2023/12/06 13:38:02;;;;;;;;;8.67;8.67;;;;;18.23;65.28;100250.75;146607;588;46020;-69
2023/12/06 13:41:08;;;;;;;;;15.25;13.25;;;;;18.53;63.96;100252.84;146606;622;46035;-68
2023/12/06 13:44:02;;;;;;;;;26.00;24.00;;;;;18.85;63.97;100253.25;146607;589;46021;-70
2023/12/06 13:46:58;;;;;;;;;13.75;13.25;;;;;19.16;61.71;100253.53;146604;687;46016;-69
2023/12/06 13:49:53;;;;;;;;;4.67;4.33;;;;;19.32;60.60;100258.03;146602;628;48020;-69
2023/12/06 13:52:47;;;;;;;;;4.00;4.00;;;;;19.32;58.45;100272.94;146603;647;46014;-67
2023/12/06 13:55:51;;;;;;;;;5.33;3.00;;;;;19.12;58.62;100273.63;146607;636;46020;-68
2023/12/06 13:58:51;;;;;;;;;5.67;4.67;;;;;18.95;60.47;100274.34;146603;615;46017;-68
2023/12/06 14:01:56;;;;;;;;;11.00;10.00;;;;;15.83;62.15;99767.25;146609;627;46010;-68
2023/12/06 14:05:00;;;;;;;;;21.50;16.75;;;;;18.70;61.33;100274.94;146606;587;46017;-68
2023/12/06 14:07:55;;;;;;;;;24.25;21.25;;;;;18.66;62.33;100286.28;146604;642;46014;-69